Weather reports worldwide

Advertisment
Kielder Castle, United Kingdom (99186): temperature & dewpoint: 18.08.2019 06:00:00 - 24.08.2019 06:00:00 (BST)Kielder Castle, United Kingdom (99186): temperature -20cm & temperature -100cm: 18.08.2019 06:00:00 - 24.08.2019 06:00:00 (BST)Kielder Castle, United Kingdom (99186): precipitation: 18.08.2019 06:00:00 - 24.08.2019 06:00:00 (BST)
Date & Time tt [°C] td [°C] tt -20cm [°C] tt -100cm [°C] rr [mm]
24.08.2019 06:00:00 10,2 10,1 - - 0,0
24.08.2019 05:00:00 11,3 11,1 - - 0,0
24.08.2019 04:00:00 12,1 12,0 - - 0,0
24.08.2019 03:00:00 12,5 12,4 - - 0,0
24.08.2019 02:00:00 12,5 12,2 - - 0,0
24.08.2019 01:00:00 12,6 12,2 - - 0,0
24.08.2019 00:00:00 13,3 12,5 - - 0,0
23.08.2019 23:00:00 14,6 13,8 - - 0,0
23.08.2019 22:00:00 14,4 13,9 - - 0,0
23.08.2019 21:00:00 15,2 13,9 - - 0,0
23.08.2019 20:00:00 16,1 14,4 - - 0,0
23.08.2019 19:00:00 16,6 14,1 - - 0,0
23.08.2019 18:00:00 17,4 14,7 - - 0,0
23.08.2019 17:00:00 18,8 14,8 - - 0,0
23.08.2019 16:00:00 19,2 15,2 - - 0,0
23.08.2019 15:00:00 17,8 14,5 - - 0,0
23.08.2019 14:00:00 18,5 14,6 - - 0,0
23.08.2019 13:00:00 17,9 15,2 - - 0,0
23.08.2019 12:00:00 16,6 14,3 - - 0,0
23.08.2019 11:00:00 16,8 15,2 - - 0,0
23.08.2019 10:00:00 15,9 14,4 16,5 15,5 0,0
23.08.2019 09:00:00 15,3 14,2 - - 0,0
23.08.2019 08:00:00 15,0 14,0 - - 0,0
23.08.2019 07:00:00 15,1 14,1 - - 0,0
23.08.2019 06:00:00 14,8 13,8 - - 0,0
23.08.2019 05:00:00 15,0 13,7 - - 0,0
23.08.2019 04:00:00 15,3 14,1 - - 0,0
23.08.2019 03:00:00 15,2 14,0 - - 0,0
23.08.2019 02:00:00 14,9 13,7 - - 0,0
23.08.2019 01:00:00 15,2 14,1 - - 0,0
23.08.2019 00:00:00 15,1 14,3 - - 0,0
22.08.2019 23:00:00 15,3 14,5 - - 0,0
22.08.2019 22:00:00 15,1 14,5 - - 0,4
22.08.2019 21:00:00 15,4 15,0 - - 0,4
22.08.2019 20:00:00 15,2 14,9 - - 1,2
22.08.2019 19:00:00 15,1 14,7 - - 1,2
22.08.2019 18:00:00 14,8 14,3 - - 1,6
22.08.2019 17:00:00 14,7 13,9 - - 0,6
22.08.2019 16:00:00 14,9 13,6 - - 0,0
22.08.2019 15:00:00 14,1 13,6 - - 0,2
22.08.2019 14:00:00 13,0 12,3 - - 0,2
22.08.2019 13:00:00 12,9 11,5 - - 0,0
22.08.2019 12:00:00 13,6 11,4 - - 0,0
22.08.2019 11:00:00 14,3 11,6 - - 0,0
22.08.2019 10:00:00 13,6 12,4 16,5 15,5 0,0
22.08.2019 09:00:00 13,0 11,7 - - 0,2
22.08.2019 08:00:00 12,5 11,7 - - 0,0
22.08.2019 07:00:00 12,2 11,6 - - 0,2
22.08.2019 06:00:00 12,3 11,5 - - 0,4
22.08.2019 05:00:00 12,2 11,4 - - 0,2
22.08.2019 04:00:00 12,4 11,5 - - 0,0
22.08.2019 03:00:00 12,3 11,7 - - 0,0
22.08.2019 02:00:00 12,8 12,3 - - 0,0
22.08.2019 01:00:00 12,9 12,3 - - 0,4
22.08.2019 00:00:00 12,7 12,3 - - 0,6
21.08.2019 23:00:00 12,2 11,9 - - 1,4
21.08.2019 22:00:00 11,7 11,2 - - 3,2
21.08.2019 21:00:00 11,9 11,2 - - 2,4
21.08.2019 20:00:00 12,8 10,9 - - 0,2
21.08.2019 19:00:00 14,1 10,7 - - 0,0
21.08.2019 18:00:00 15,0 10,3 - - 0,0
21.08.2019 17:00:00 15,7 11,0 - - 0,0
21.08.2019 16:00:00 15,9 10,2 - - 0,0
21.08.2019 15:00:00 16,7 10,6 - - 0,0
21.08.2019 14:00:00 16,2 10,7 - - 0,0
21.08.2019 13:00:00 15,7 11,3 - - 0,0
21.08.2019 12:00:00 16,4 11,3 - - 0,0
21.08.2019 11:00:00 15,4 12,3 - - 0,0
21.08.2019 10:00:00 14,5 12,7 16,5 15,5 0,0
21.08.2019 09:00:00 13,5 13,4 - - 0,0
21.08.2019 08:00:00 10,9 10,8 - - 0,2
21.08.2019 07:00:00 10,0 9,9 - - 0,6
21.08.2019 06:00:00 9,5 9,4 - - 0,0
21.08.2019 05:00:00 9,1 9,0 - - 0,0
21.08.2019 04:00:00 8,7 8,5 - - 0,0
21.08.2019 03:00:00 8,5 8,4 - - 0,0
21.08.2019 02:00:00 8,1 7,9 - - 0,0
21.08.2019 01:00:00 8,2 8,1 - - 0,0
21.08.2019 00:00:00 7,9 7,7 - - 0,0
20.08.2019 23:00:00 7,8 7,4 - - 0,0
20.08.2019 22:00:00 8,6 8,0 - - 0,0
20.08.2019 21:00:00 9,9 8,6 - - 0,0
20.08.2019 20:00:00 11,9 8,5 - - 0,0
20.08.2019 19:00:00 13,3 7,5 - - 0,0
20.08.2019 18:00:00 14,3 10,0 - - 0,0
20.08.2019 17:00:00 14,4 10,3 - - 0,0
20.08.2019 16:00:00 15,2 11,5 - - 0,0
20.08.2019 15:00:00 15,2 12,4 - - 1,4
20.08.2019 14:00:00 13,6 11,8 - - 1,4
20.08.2019 13:00:00 14,8 10,6 - - 0,0
20.08.2019 12:00:00 14,8 10,9 - - 0,0
20.08.2019 11:00:00 14,4 11,3 - - 0,0
20.08.2019 10:00:00 12,4 10,6 16,4 15,5 0,0
20.08.2019 09:00:00 11,5 10,9 - - 0,0
20.08.2019 08:00:00 10,8 10,4 - - 0,2
20.08.2019 07:00:00 10,5 10,1 - - 0,0
20.08.2019 06:00:00 10,4 10,0 - - 0,0
20.08.2019 05:00:00 10,6 10,2 - - 0,8
20.08.2019 04:00:00 10,6 10,2 - - 0,0
20.08.2019 03:00:00 10,6 10,3 - - 0,6
20.08.2019 02:00:00 10,7 9,8 - - 0,6
20.08.2019 01:00:00 11,0 9,6 - - 0,0
20.08.2019 00:00:00 10,9 9,7 - - 0,0
19.08.2019 23:00:00 10,3 9,7 - - 0,0
19.08.2019 22:00:00 9,8 9,2 - - 0,0
19.08.2019 21:00:00 10,5 9,6 - - 0,0
19.08.2019 20:00:00 12,0 10,6 - - 0,2
19.08.2019 19:00:00 12,6 10,9 - - 0,0
19.08.2019 18:00:00 12,6 11,1 - - 0,6
19.08.2019 17:00:00 12,8 11,2 - - 1,4
19.08.2019 16:00:00 13,5 11,2 - - 1,6
19.08.2019 15:00:00 11,6 10,2 - - 1,2
19.08.2019 14:00:00 15,2 10,7 - - 1,0
19.08.2019 13:00:00 13,2 10,6 - - 0,2
19.08.2019 12:00:00 14,0 10,7 - - 0,0
19.08.2019 11:00:00 13,8 10,8 - - 0,0
19.08.2019 10:00:00 13,1 11,2 16,4 15,7 0,0
19.08.2019 09:00:00 11,8 10,0 - - 0,0
19.08.2019 08:00:00 11,4 10,1 - - 0,0
19.08.2019 07:00:00 11,0 10,2 - - 0,2
19.08.2019 06:00:00 10,9 9,9 - - 0,0
19.08.2019 05:00:00 11,4 10,7 - - 0,2
19.08.2019 04:00:00 11,4 10,7 - - 0,0
19.08.2019 03:00:00 11,2 10,4 - - 0,0
19.08.2019 02:00:00 11,5 10,9 - - 0,0
19.08.2019 01:00:00 11,4 10,9 - - 0,0
19.08.2019 00:00:00 11,6 11,0 - - 0,0
18.08.2019 23:00:00 12,1 11,6 - - 0,2
18.08.2019 22:00:00 12,6 12,2 - - 0,4
18.08.2019 21:00:00 11,3 10,9 - - 0,0
18.08.2019 20:00:00 10,8 10,1 - - 0,0
18.08.2019 19:00:00 11,6 10,8 - - 6,0
18.08.2019 18:00:00 12,6 8,6 - - 0,0
18.08.2019 17:00:00 14,6 11,6 - - 1,0
18.08.2019 16:00:00 14,9 10,9 - - 0,0
18.08.2019 15:00:00 15,7 11,2 - - 0,0
18.08.2019 14:00:00 14,5 11,2 - - 0,0
18.08.2019 13:00:00 14,4 12,8 - - 0,8
18.08.2019 12:00:00 12,3 11,6 - - 0,8
18.08.2019 11:00:00 12,5 11,3 - - 0,8
18.08.2019 10:00:00 12,1 11,0 16,4 15,4 0,2
18.08.2019 09:00:00 11,8 10,0 - - 0,2
18.08.2019 08:00:00 11,6 9,8 - - 0,0
18.08.2019 07:00:00 11,4 9,7 - - 0,2
18.08.2019 06:00:00 11,3 9,6 - - 0,0

tt = temperature
td = dewpoint
tt -20cm = temperature -20cm
tt -100cm = temperature -100cm
rr = precipitation

Next stations